createdAt,value
2023-04-12T03:35:17.480Z,644.8
2023-04-12T03:36:19.629Z,645.1
2023-04-12T03:37:21.834Z,644.3
2023-04-12T03:38:23.737Z,644.3
2023-04-12T03:39:25.453Z,644.2
2023-04-12T03:40:27.338Z,644.4
2023-04-12T03:41:29.577Z,644.5
2023-04-12T05:27:40.562Z,655
2023-04-12T05:28:42.631Z,655.6
2023-04-12T06:28:42.218Z,660.5
2023-04-12T06:29:43.914Z,660.4
2023-04-12T08:08:36.383Z,669.7
2023-04-12T09:03:22.938Z,678.9
2023-04-12T12:12:22.804Z,697.7
2023-04-12T12:13:24.933Z,697.3
2023-04-12T12:14:26.880Z,697.4
2023-04-12T12:15:29.212Z,697.3
2023-04-12T12:16:32.029Z,697.8
2023-04-12T12:17:34.181Z,698.6
2023-04-12T12:18:36.292Z,699.2
2023-04-12T12:19:38.425Z,699.5
2023-04-12T12:20:40.512Z,699.5
2023-04-12T12:21:42.603Z,699.4
2023-04-12T12:22:44.733Z,698.5
2023-04-12T12:23:46.813Z,698.5
2023-04-12T12:24:48.917Z,698.3
2023-04-12T12:25:51.567Z,698.5
2023-04-12T12:26:53.518Z,698.4
2023-04-12T12:27:55.972Z,698.7
2023-04-12T12:28:58.180Z,699.1
2023-04-12T12:30:00.372Z,698.9
2023-04-12T12:31:02.535Z,698.5
2023-04-12T12:32:04.635Z,698.2
2023-04-12T12:33:06.883Z,697.9
2023-04-12T12:34:12.153Z,698
2023-04-12T12:35:14.396Z,698.6
2023-04-12T12:36:16.733Z,698.9
2023-04-12T12:37:18.921Z,699.5
2023-04-12T12:38:21.079Z,699.5
2023-04-12T12:39:23.203Z,699.9
2023-04-12T12:40:25.092Z,700
2023-04-12T12:41:27.176Z,699.9
2023-04-12T12:42:29.117Z,700.2
2023-04-12T12:43:31.392Z,700.9
2023-04-12T15:24:29.170Z,710
2023-04-12T15:25:31.259Z,710.1
2023-04-12T15:26:33.228Z,710.3
2023-04-12T19:16:21.411Z,704.6
2023-04-12T19:17:23.503Z,704.5
2023-04-12T20:34:35.591Z,700.9
2023-04-12T20:35:37.742Z,700.4
2023-04-12T20:36:39.470Z,700.5
2023-04-12T20:37:41.392Z,700.4
2023-04-12T20:38:43.484Z,700
2023-04-12T20:39:45.398Z,700.2
2023-04-12T20:40:47.339Z,699.8
2023-04-12T20:41:49.260Z,700
2023-04-12T20:42:51.438Z,700
2023-04-12T20:43:53.552Z,699.3
2023-04-12T20:44:55.477Z,699.5
2023-04-12T22:38:12.026Z,689.8
2023-04-12T22:39:14.167Z,689.8
